createdAt,value
2019-05-18T00:02:01.753Z,10.79
2019-05-18T00:04:33.373Z,10.72
2019-05-18T00:07:04.638Z,10.67
2019-05-18T00:09:35.774Z,10.70
2019-05-18T00:12:06.736Z,10.67
2019-05-18T00:14:37.647Z,10.67
2019-05-18T00:17:23.155Z,10.63
2019-05-18T00:19:42.142Z,10.69
2019-05-18T00:22:13.054Z,10.69
2019-05-18T00:24:44.063Z,10.64
2019-05-18T00:27:14.776Z,10.72
2019-05-18T00:29:45.550Z,10.74
2019-05-18T00:32:16.649Z,10.81
2019-05-18T00:34:48.007Z,10.77
2019-05-18T00:37:19.249Z,10.74
2019-05-18T00:39:50.237Z,10.75
2019-05-18T00:42:20.907Z,10.76
2019-05-18T00:44:52.110Z,10.77
2019-05-18T00:47:22.983Z,10.76
2019-05-18T00:49:53.707Z,10.66
2019-05-18T00:52:24.455Z,10.62
2019-05-18T00:54:55.473Z,10.60
2019-05-18T00:57:26.485Z,10.56
2019-05-18T00:59:57.383Z,10.58
2019-05-18T01:02:29.267Z,10.55
2019-05-18T01:05:00.702Z,10.55
2019-05-18T01:07:31.525Z,10.62
2019-05-18T01:10:02.401Z,10.64
2019-05-18T01:12:33.343Z,10.63
2019-05-18T01:15:06.178Z,10.69
2019-05-18T01:17:37.333Z,10.76
2019-05-18T01:20:09.002Z,10.80
2019-05-18T01:22:39.642Z,10.76
2019-05-18T01:25:10.899Z,10.75
2019-05-18T01:27:41.834Z,10.81
2019-05-18T01:30:13.626Z,10.84
2019-05-18T01:32:44.258Z,10.81
2019-05-18T01:35:15.640Z,10.86
2019-05-18T01:37:46.287Z,10.84
2019-05-18T01:40:17.621Z,10.76
2019-05-18T01:42:49.498Z,10.80
2019-05-18T01:45:20.202Z,10.87
2019-05-18T01:47:50.768Z,10.83
2019-05-18T01:50:22.585Z,10.88
2019-05-18T01:52:53.502Z,11.00
2019-05-18T01:55:25.534Z,11.05
2019-05-18T01:57:56.362Z,10.98
2019-05-18T02:00:27.062Z,10.98
2019-05-18T02:02:59.000Z,11.01
2019-05-18T02:05:29.767Z,11.04
2019-05-18T02:08:01.033Z,11.05
2019-05-18T02:10:31.692Z,10.92
2019-05-18T02:13:02.915Z,10.77
2019-05-18T02:15:33.778Z,10.69
2019-05-18T02:18:04.496Z,10.63
2019-05-18T02:20:35.626Z,10.63
2019-05-18T02:23:06.313Z,10.67
2019-05-18T02:25:37.044Z,10.66
2019-05-18T02:28:07.886Z,10.75
2019-05-18T02:30:38.468Z,10.71
2019-05-18T02:33:09.331Z,10.61
2019-05-18T02:35:40.076Z,10.63
2019-05-18T02:38:17.654Z,10.65
2019-05-18T02:40:48.890Z,10.61
2019-05-18T02:43:20.385Z,10.68
2019-05-18T02:45:51.106Z,10.66
2019-05-18T02:48:21.865Z,10.59
2019-05-18T02:50:52.615Z,10.52
2019-05-18T02:53:23.566Z,10.52
2019-05-18T02:55:55.095Z,10.40
2019-05-18T02:58:26.044Z,10.32
2019-05-18T03:00:56.759Z,10.29
2019-05-18T03:03:28.602Z,10.32
2019-05-18T03:05:59.497Z,10.38
2019-05-18T03:08:30.403Z,10.55
2019-05-18T03:11:01.623Z,10.56
2019-05-18T03:13:32.459Z,10.60
2019-05-18T03:16:03.575Z,10.64
2019-05-18T03:18:34.769Z,10.64
2019-05-18T03:21:05.684Z,10.69
2019-05-18T03:23:36.753Z,10.68
2019-05-18T03:26:07.489Z,10.61
2019-05-18T03:28:38.212Z,10.56
2019-05-18T03:31:09.077Z,10.60
2019-05-18T03:33:40.054Z,10.75
2019-05-18T03:36:11.107Z,10.80
2019-05-18T03:38:41.982Z,10.85
2019-05-18T03:41:12.816Z,10.87
2019-05-18T03:43:43.694Z,10.91
2019-05-18T03:46:14.558Z,10.92
2019-05-18T03:48:45.388Z,11.03
2019-05-18T03:51:16.231Z,11.14
2019-05-18T03:53:47.030Z,11.15
2019-05-18T03:56:17.823Z,11.13
2019-05-18T03:58:48.560Z,11.18
2019-05-18T04:01:20.391Z,11.23
2019-05-18T04:03:52.057Z,11.38
2019-05-18T04:06:22.748Z,11.46
2019-05-18T04:08:53.472Z,11.59
2019-05-18T04:11:24.218Z,11.75
2019-05-18T04:13:55.181Z,11.96
2019-05-18T04:16:26.359Z,12.02
2019-05-18T04:18:57.465Z,12.06
2019-05-18T04:21:28.483Z,12.16
2019-05-18T04:23:59.464Z,12.22
2019-05-18T04:26:30.381Z,12.36
2019-05-18T04:29:01.146Z,12.27
2019-05-18T04:31:33.436Z,12.31
2019-05-18T04:34:04.153Z,12.41
2019-05-18T04:36:34.922Z,12.54
2019-05-18T04:39:07.308Z,12.57
2019-05-18T04:41:38.358Z,12.68
2019-05-18T04:44:09.476Z,12.85
2019-05-18T04:46:40.830Z,13.03
2019-05-18T04:49:11.688Z,13.10
2019-05-18T04:51:42.389Z,13.17
2019-05-18T04:54:13.364Z,13.22
2019-05-18T04:56:44.411Z,13.21
2019-05-18T04:59:16.176Z,13.32
2019-05-18T05:01:47.025Z,13.38
2019-05-18T05:04:17.845Z,13.39
2019-05-18T05:06:48.586Z,13.50
2019-05-18T05:09:19.404Z,13.91
2019-05-18T05:11:50.209Z,14.28
2019-05-18T05:14:23.017Z,14.44
2019-05-18T05:16:54.019Z,14.66
2019-05-18T05:19:24.832Z,14.85
2019-05-18T05:21:55.733Z,14.94
2019-05-18T05:24:26.664Z,15.24
2019-05-18T05:26:57.700Z,15.49
2019-05-18T05:29:28.300Z,15.32
2019-05-18T05:31:59.167Z,15.00
2019-05-18T05:34:30.349Z,15.24
2019-05-18T05:37:01.630Z,15.24
2019-05-18T05:39:32.510Z,15.41
2019-05-18T05:42:03.131Z,15.67
2019-05-18T05:44:34.675Z,15.89
2019-05-18T05:47:05.365Z,15.89
2019-05-18T05:49:36.037Z,15.93
2019-05-18T05:52:06.775Z,16.10
2019-05-18T05:54:37.544Z,16.26
2019-05-18T05:57:08.307Z,16.26
2019-05-18T05:59:39.430Z,16.35
2019-05-18T06:02:10.376Z,16.55
2019-05-18T06:04:42.195Z,16.45
2019-05-18T06:07:13.008Z,16.82
2019-05-18T06:09:43.914Z,16.82
2019-05-18T06:12:14.578Z,16.77
2019-05-18T06:14:45.373Z,16.98
2019-05-18T06:17:16.427Z,17.06
2019-05-18T06:19:48.760Z,17.31
2019-05-18T06:22:19.615Z,17.16
2019-05-18T06:24:50.796Z,17.00
2019-05-18T06:27:21.793Z,17.19
2019-05-18T06:29:52.753Z,17.22
2019-05-18T06:32:23.767Z,17.46
2019-05-18T06:34:54.377Z,17.58
2019-05-18T06:37:25.529Z,17.70
2019-05-18T06:39:56.598Z,18.06
2019-05-18T06:42:27.990Z,18.34
2019-05-18T06:44:59.081Z,18.62
2019-05-18T06:47:30.312Z,19.06
2019-05-18T06:50:01.175Z,19.53
2019-05-18T06:52:32.950Z,19.46
2019-05-18T06:55:05.148Z,19.12
2019-05-18T06:57:37.138Z,19.07
2019-05-18T07:00:10.969Z,19.00
2019-05-18T07:02:42.500Z,19.18
2019-05-18T07:05:14.102Z,19.54
2019-05-18T07:07:44.692Z,21.90
2019-05-18T07:10:15.823Z,24.12
2019-05-18T07:12:46.673Z,25.71
2019-05-18T07:15:18.272Z,25.20
2019-05-18T07:17:49.052Z,26.74
2019-05-18T07:20:21.481Z,27.95
2019-05-18T07:22:52.118Z,27.20
2019-05-18T07:25:22.918Z,28.32
2019-05-18T07:27:53.821Z,30.07
2019-05-18T07:30:25.159Z,29.27
2019-05-18T07:32:56.141Z,28.02
2019-05-18T07:35:28.586Z,25.30
2019-05-18T07:37:59.364Z,22.78
2019-05-18T07:40:31.562Z,21.32
2019-05-18T07:43:02.622Z,22.63
2019-05-18T07:45:33.763Z,25.82
2019-05-18T07:48:04.883Z,26.00
2019-05-18T07:50:35.924Z,26.15
2019-05-18T07:53:07.094Z,25.33
2019-05-18T07:55:37.654Z,27.81
2019-05-18T07:58:08.712Z,28.57
2019-05-18T08:00:39.370Z,30.29
2019-05-18T08:03:10.508Z,27.57
2019-05-18T08:05:41.423Z,27.77
2019-05-18T08:08:12.725Z,28.39
2019-05-18T08:10:43.900Z,27.44
2019-05-18T08:13:15.694Z,25.36
2019-05-18T08:15:46.921Z,28.24
2019-05-18T08:18:17.869Z,28.81
2019-05-18T08:20:49.495Z,30.37
2019-05-18T08:23:20.284Z,30.23
2019-05-18T08:25:51.212Z,31.85
2019-05-18T08:28:23.290Z,30.95
2019-05-18T08:30:56.503Z,29.44
2019-05-18T08:33:28.091Z,28.70
2019-05-18T08:36:00.155Z,28.23
2019-05-18T08:38:31.284Z,27.26
2019-05-18T08:41:02.843Z,29.10
2019-05-18T08:43:34.630Z,30.20
2019-05-18T08:46:05.750Z,30.10
2019-05-18T08:48:37.370Z,30.10
2019-05-18T08:51:07.945Z,30.83
2019-05-18T08:53:39.380Z,29.08
2019-05-18T08:56:10.587Z,27.71
2019-05-18T08:58:41.725Z,27.22
2019-05-18T09:01:12.401Z,26.37
2019-05-18T09:03:43.550Z,27.02
2019-05-18T09:06:16.271Z,27.06
2019-05-18T09:08:47.125Z,27.51
2019-05-18T09:11:18.371Z,26.93
2019-05-18T09:13:49.308Z,24.92
2019-05-18T09:16:20.069Z,24.03
2019-05-18T09:18:52.043Z,24.46
2019-05-18T09:21:23.304Z,25.37
2019-05-18T09:23:54.817Z,26.00
2019-05-18T09:26:26.080Z,26.82
2019-05-18T09:28:58.854Z,26.42
2019-05-18T09:31:29.734Z,26.03
2019-05-18T09:34:01.460Z,26.17
2019-05-18T09:36:32.049Z,26.02
2019-05-18T09:39:05.324Z,27.46
2019-05-18T09:41:36.752Z,28.09
2019-05-18T09:44:07.970Z,27.63
2019-05-18T09:46:38.700Z,28.66
2019-05-18T09:49:09.530Z,29.14
2019-05-18T09:51:40.935Z,28.82
2019-05-18T09:54:12.060Z,27.53
2019-05-18T09:56:43.610Z,26.75
2019-05-18T09:59:15.131Z,25.96
2019-05-18T10:01:46.145Z,25.54
2019-05-18T10:04:17.589Z,25.50
2019-05-18T10:06:49.114Z,25.59
2019-05-18T10:09:20.407Z,26.10
2019-05-18T10:11:51.668Z,27.46
2019-05-18T10:14:22.699Z,28.00
2019-05-18T10:16:54.266Z,28.68
2019-05-18T10:19:26.383Z,30.42
2019-05-18T10:21:57.324Z,30.21
2019-05-18T10:24:28.831Z,29.63
2019-05-18T10:27:00.712Z,28.80
2019-05-18T10:29:33.668Z,28.14
2019-05-18T10:32:05.174Z,28.16
2019-05-18T10:34:35.728Z,28.88
2019-05-18T10:37:06.873Z,28.97
2019-05-18T10:39:38.874Z,28.91
2019-05-18T10:42:09.856Z,29.36
2019-05-18T10:44:41.203Z,30.21
2019-05-18T10:47:12.549Z,29.51
2019-05-18T10:49:44.122Z,29.10
2019-05-18T10:52:14.908Z,28.06
2019-05-18T10:54:45.579Z,28.95
2019-05-18T10:57:16.429Z,28.89
2019-05-18T10:59:47.492Z,28.23
2019-05-18T11:02:18.409Z,28.09
2019-05-18T11:04:49.137Z,26.95
2019-05-18T11:07:20.140Z,26.08
2019-05-18T11:09:51.083Z,26.78
2019-05-18T11:12:23.264Z,26.66
2019-05-18T11:14:55.448Z,26.82
2019-05-18T11:17:26.851Z,27.35
2019-05-18T11:19:58.044Z,28.77
2019-05-18T11:22:28.974Z,29.79
2019-05-18T11:24:59.942Z,27.62
2019-05-18T11:27:31.055Z,27.64
2019-05-18T11:30:03.067Z,28.20
2019-05-18T11:32:34.109Z,28.49
2019-05-18T11:35:06.979Z,28.03
2019-05-18T11:37:37.638Z,26.58
2019-05-18T11:40:10.302Z,26.84
2019-05-18T11:42:41.738Z,26.71
2019-05-18T11:45:15.519Z,27.12
2019-05-18T11:47:47.252Z,28.05
2019-05-18T11:50:19.839Z,28.72
2019-05-18T11:52:51.371Z,29.12
2019-05-18T11:55:23.154Z,28.56
2019-05-18T11:57:53.764Z,28.18
2019-05-18T12:00:25.261Z,27.04
2019-05-18T12:02:56.204Z,26.40
2019-05-18T12:05:27.048Z,27.21
2019-05-18T12:07:59.205Z,26.94
2019-05-18T12:10:30.512Z,26.78
2019-05-18T12:13:02.548Z,27.72
2019-05-18T12:15:33.698Z,27.87
2019-05-18T12:18:04.782Z,27.62
2019-05-18T12:20:36.337Z,27.60
2019-05-18T12:23:08.281Z,27.79
2019-05-18T12:25:39.945Z,27.44
2019-05-18T12:28:13.745Z,28.11
2019-05-18T12:30:44.799Z,27.62
2019-05-18T12:33:16.029Z,27.07
2019-05-18T12:35:47.173Z,26.83
2019-05-18T12:38:18.039Z,26.91
2019-05-18T12:40:49.276Z,26.67
2019-05-18T12:43:20.161Z,26.26
2019-05-18T12:45:50.811Z,26.50
2019-05-18T12:48:21.882Z,27.12
2019-05-18T12:50:54.061Z,26.44
2019-05-18T12:53:24.632Z,25.65
2019-05-18T12:55:55.609Z,25.22
2019-05-18T12:58:26.426Z,25.02
2019-05-18T13:00:57.129Z,25.95
2019-05-18T13:03:28.236Z,25.55
2019-05-18T13:05:59.186Z,25.50
2019-05-18T13:08:30.650Z,26.08
2019-05-18T13:11:01.332Z,26.80
2019-05-18T13:13:32.224Z,27.16
2019-05-18T13:16:03.345Z,26.90
2019-05-18T13:18:34.811Z,27.32
2019-05-18T13:21:05.708Z,27.82
2019-05-18T13:23:38.241Z,27.32
2019-05-18T13:26:10.072Z,27.37
2019-05-18T13:28:40.860Z,27.11
2019-05-18T13:31:11.399Z,27.08
2019-05-18T13:33:42.745Z,27.00
2019-05-18T13:36:13.394Z,26.91
2019-05-18T13:38:44.145Z,26.70
2019-05-18T13:41:14.687Z,26.92
2019-05-18T13:43:45.245Z,26.59
2019-05-18T13:46:16.119Z,26.27
2019-05-18T13:48:47.120Z,25.68
2019-05-18T13:51:17.773Z,25.95
2019-05-18T13:53:48.473Z,25.88
2019-05-18T13:56:19.937Z,25.78
2019-05-18T13:58:51.295Z,25.86
2019-05-18T14:01:22.270Z,26.42
2019-05-18T14:03:53.129Z,26.35
2019-05-18T14:06:24.816Z,25.76
2019-05-18T14:08:55.867Z,25.56
2019-05-18T14:11:26.856Z,25.80
2019-05-18T14:13:57.628Z,26.29
2019-05-18T14:16:28.460Z,26.67
2019-05-18T14:18:59.225Z,26.58
2019-05-18T14:21:29.977Z,26.44
2019-05-18T14:24:00.663Z,25.80
2019-05-18T14:26:31.522Z,25.35
2019-05-18T14:29:02.208Z,25.22
2019-05-18T14:31:34.523Z,25.56
2019-05-18T14:34:05.618Z,26.11
2019-05-18T14:36:36.901Z,26.49
2019-05-18T14:39:07.783Z,26.48
2019-05-18T14:41:42.196Z,26.10
2019-05-18T14:44:11.092Z,26.34
2019-05-18T14:46:41.726Z,26.85
2019-05-18T14:49:12.416Z,26.65
2019-05-18T14:51:43.083Z,26.28
2019-05-18T14:54:13.792Z,25.57
2019-05-18T14:56:44.751Z,25.83
2019-05-18T14:59:15.790Z,25.81
2019-05-18T15:01:47.386Z,26.17
2019-05-18T15:04:18.351Z,26.13
2019-05-18T15:06:49.133Z,26.13
2019-05-18T15:09:20.047Z,25.93
2019-05-18T15:11:50.979Z,26.05
2019-05-18T15:14:21.688Z,26.36
2019-05-18T15:16:53.013Z,26.13
2019-05-18T15:19:24.257Z,26.30
2019-05-18T15:21:55.079Z,25.89
2019-05-18T15:24:26.813Z,25.91
2019-05-18T15:26:57.571Z,26.05
2019-05-18T15:29:28.335Z,25.76
2019-05-18T15:31:59.369Z,25.71
2019-05-18T15:34:31.325Z,25.50
2019-05-18T15:37:02.549Z,25.71
2019-05-18T15:39:33.507Z,25.85
2019-05-18T15:42:05.358Z,25.85
2019-05-18T15:44:36.656Z,25.97
2019-05-18T15:47:08.444Z,26.09
2019-05-18T15:49:39.294Z,25.49
2019-05-18T15:52:10.202Z,25.44
2019-05-18T15:54:41.560Z,25.46
2019-05-18T15:57:12.276Z,25.33
2019-05-18T15:59:42.996Z,25.15
2019-05-18T16:02:13.729Z,25.22
2019-05-18T16:04:44.377Z,25.36
2019-05-18T16:07:15.144Z,25.77
2019-05-18T16:09:46.058Z,25.87
2019-05-18T16:12:17.009Z,26.11
2019-05-18T16:14:48.631Z,25.81
2019-05-18T16:17:19.387Z,25.50
2019-05-18T16:19:50.055Z,25.25
2019-05-18T16:22:20.949Z,25.14
2019-05-18T16:24:51.626Z,24.81
2019-05-18T16:27:22.531Z,24.66
2019-05-18T16:29:53.176Z,24.71
2019-05-18T16:32:24.414Z,25.01
2019-05-18T16:34:55.234Z,24.86
2019-05-18T16:37:26.249Z,25.08
2019-05-18T16:39:56.879Z,24.83
2019-05-18T16:42:29.230Z,24.82
2019-05-18T16:45:00.248Z,24.77
2019-05-18T16:47:31.145Z,24.45
2019-05-18T16:50:02.009Z,24.34
2019-05-18T16:52:32.794Z,24.28
2019-05-18T16:55:04.037Z,24.39
2019-05-18T16:57:34.968Z,24.24
2019-05-18T17:00:10.900Z,24.18
2019-05-18T17:02:42.135Z,24.22
2019-05-18T17:05:14.128Z,24.01
2019-05-18T17:07:44.855Z,23.89
2019-05-18T17:10:16.834Z,23.68
2019-05-18T17:12:47.669Z,23.84
2019-05-18T17:15:19.091Z,23.80
2019-05-18T17:17:49.759Z,23.81
2019-05-18T17:20:20.974Z,23.73
2019-05-18T17:22:52.371Z,23.77
2019-05-18T17:25:23.258Z,23.61
2019-05-18T17:27:55.527Z,23.66
2019-05-18T17:30:26.653Z,23.55
2019-05-18T17:32:57.438Z,23.48
2019-05-18T17:35:28.305Z,23.38
2019-05-18T17:37:58.959Z,23.23
2019-05-18T17:40:29.792Z,23.18
2019-05-18T17:43:00.343Z,22.97
2019-05-18T17:45:31.231Z,22.79
2019-05-18T17:48:02.023Z,22.73
2019-05-18T17:50:33.235Z,22.66
2019-05-18T17:53:04.418Z,22.50
2019-05-18T17:55:35.281Z,22.37
2019-05-18T17:58:06.377Z,22.21
2019-05-18T18:00:38.428Z,22.09
2019-05-18T18:03:10.164Z,22.00
2019-05-18T18:05:42.413Z,21.94
2019-05-18T18:08:13.660Z,21.85
2019-05-18T18:10:45.484Z,21.78
2019-05-18T18:13:16.257Z,21.58
2019-05-18T18:15:47.071Z,21.49
2019-05-18T18:18:18.891Z,21.35
2019-05-18T18:20:49.820Z,21.23
2019-05-18T18:23:20.953Z,21.10
2019-05-18T18:25:51.783Z,20.92
2019-05-18T18:28:22.555Z,20.75
2019-05-18T18:30:53.300Z,20.65
2019-05-18T18:33:24.120Z,20.48
2019-05-18T18:35:55.149Z,20.31
2019-05-18T18:38:26.016Z,20.17
2019-05-18T18:40:56.671Z,19.97
2019-05-18T18:43:27.549Z,19.74
2019-05-18T18:45:58.327Z,19.43
2019-05-18T18:48:30.403Z,19.05
2019-05-18T18:51:01.222Z,18.72
2019-05-18T18:53:32.033Z,18.44
2019-05-18T18:56:04.194Z,18.15
2019-05-18T18:58:35.214Z,17.82
2019-05-18T19:01:07.210Z,17.58
2019-05-18T19:03:38.176Z,17.58
2019-05-18T19:06:09.246Z,17.51
2019-05-18T19:08:40.537Z,17.38
2019-05-18T19:11:12.792Z,17.15
2019-05-18T19:13:45.948Z,16.80
2019-05-18T19:16:17.089Z,16.44
2019-05-18T19:18:48.009Z,16.27
2019-05-18T19:21:18.726Z,16.27
2019-05-18T19:23:49.464Z,16.30
2019-05-18T19:26:20.418Z,16.27
2019-05-18T19:28:51.255Z,16.11
2019-05-18T19:31:21.996Z,15.93
2019-05-18T19:33:52.892Z,15.76
2019-05-18T19:36:24.147Z,15.59
2019-05-18T19:38:54.797Z,15.47
2019-05-18T19:41:26.506Z,15.29
2019-05-18T19:43:57.413Z,15.15
2019-05-18T19:46:28.203Z,14.96
2019-05-18T19:48:59.064Z,14.73
2019-05-18T19:51:30.976Z,14.55
2019-05-18T19:54:03.219Z,14.48
2019-05-18T19:56:39.171Z,14.28
2019-05-18T19:59:06.877Z,14.29
2019-05-18T20:01:38.787Z,14.29
2019-05-18T20:04:09.925Z,14.45
2019-05-18T20:06:41.883Z,14.57
2019-05-18T20:09:14.687Z,14.62
2019-05-18T20:11:46.492Z,14.67
2019-05-18T20:14:17.672Z,14.65
2019-05-18T20:16:48.602Z,14.61
2019-05-18T20:19:19.839Z,14.51
2019-05-18T20:21:51.102Z,14.44
2019-05-18T20:24:24.045Z,14.38
2019-05-18T20:26:56.239Z,14.27
2019-05-18T20:29:27.611Z,14.15
2019-05-18T20:31:59.332Z,14.19
2019-05-18T20:34:30.525Z,14.18
2019-05-18T20:37:01.507Z,14.35
2019-05-18T20:39:32.259Z,14.45
2019-05-18T20:42:03.462Z,14.48
2019-05-18T20:44:34.467Z,14.40
2019-05-18T20:47:05.201Z,14.08
2019-05-18T20:49:35.870Z,14.03
2019-05-18T20:52:06.957Z,13.99
2019-05-18T20:54:37.664Z,14.08
2019-05-18T20:57:08.566Z,13.95
2019-05-18T20:59:39.460Z,13.94
2019-05-18T21:02:11.541Z,13.83
2019-05-18T21:04:43.527Z,13.67
2019-05-18T21:07:14.549Z,13.52
2019-05-18T21:09:45.322Z,13.45
2019-05-18T21:12:16.172Z,13.49
2019-05-18T21:14:47.335Z,13.41
2019-05-18T21:17:18.366Z,13.37
2019-05-18T21:19:49.381Z,13.23
2019-05-18T21:22:20.110Z,13.15
2019-05-18T21:24:50.930Z,13.02
2019-05-18T21:27:21.667Z,13.08
2019-05-18T21:29:52.570Z,13.07
2019-05-18T21:32:23.599Z,12.98
2019-05-18T21:34:54.844Z,12.90
2019-05-18T21:37:25.540Z,12.81
2019-05-18T21:39:56.192Z,12.64
2019-05-18T21:42:26.912Z,12.63
2019-05-18T21:44:58.542Z,12.60
2019-05-18T21:47:29.369Z,12.61
2019-05-18T21:50:00.100Z,12.69
2019-05-18T21:52:31.571Z,12.73
2019-05-18T21:55:02.802Z,12.56
2019-05-18T21:57:33.772Z,12.38
2019-05-18T22:00:05.761Z,12.34
2019-05-18T22:02:38.097Z,12.46
2019-05-18T22:05:09.099Z,12.47
2019-05-18T22:07:41.332Z,12.36
2019-05-18T22:10:24.972Z,12.36
2019-05-18T22:12:44.922Z,12.32
2019-05-18T22:15:16.270Z,12.26
2019-05-18T22:18:05.321Z,12.24
2019-05-18T22:20:43.512Z,12.14
2019-05-18T22:23:10.756Z,11.95
2019-05-18T22:25:42.462Z,11.81
2019-05-18T22:28:14.250Z,11.89
2019-05-18T22:30:45.398Z,11.94
2019-05-18T22:33:16.170Z,11.86
2019-05-18T22:35:47.327Z,11.79
2019-05-18T22:38:18.436Z,11.77
2019-05-18T22:40:49.465Z,11.76
2019-05-18T22:43:20.875Z,11.71
2019-05-18T22:45:52.605Z,11.73
2019-05-18T22:48:40.461Z,11.68
2019-05-18T22:50:58.221Z,11.66
2019-05-18T22:53:29.575Z,11.60
2019-05-18T22:56:00.460Z,11.60
2019-05-18T22:58:32.034Z,11.65
2019-05-18T23:01:02.989Z,11.59
2019-05-18T23:03:35.391Z,11.56
2019-05-18T23:06:07.691Z,11.57
2019-05-18T23:08:38.599Z,11.55
2019-05-18T23:11:09.552Z,11.52
2019-05-18T23:13:40.177Z,11.50
2019-05-18T23:16:11.296Z,11.49
2019-05-18T23:18:55.923Z,11.45
2019-05-18T23:21:14.762Z,11.36
2019-05-18T23:23:46.186Z,11.61
2019-05-18T23:26:18.688Z,11.59
2019-05-18T23:28:49.674Z,11.43
2019-05-18T23:31:20.945Z,11.42
2019-05-18T23:33:51.678Z,11.38
2019-05-18T23:36:22.440Z,11.30
2019-05-18T23:38:53.448Z,11.35
2019-05-18T23:41:24.436Z,11.35
2019-05-18T23:43:55.333Z,11.35
2019-05-18T23:46:26.264Z,11.28
2019-05-18T23:49:09.995Z,11.22
2019-05-18T23:51:30.015Z,11.21
2019-05-18T23:54:00.716Z,11.21
2019-05-18T23:56:31.510Z,11.11
2019-05-18T23:59:03.023Z,10.99
